Flight Track Log - Related Links

Times and Time Zones

All times are in EDT time to prevent confusion due to time zone crossing. See the EJA871 flight status page for this flight to view local times or setup timezone preferences in your user account.

Time Position Orientation Groundspeed Altitude Reporting Facility
EDT Latitude Longitude Course Direction KTS MPH feet Rate Location/Type
02:50PM 37.6244 -97.4356 242° Southwest 194 223 2,700  Level Kansas City Center
02:51PM 37.6031 -97.4853 242° Southwest 243 280 5,100 3,089 Climbing Kansas City Center
02:52PM 37.6103 -97.5750 276° West 263 303 7,900 2,976 Climbing Kansas City Center
02:53PM 37.6328 -97.6686 287° West 274 315 11,300 2,952 Climbing Kansas City Center
02:54PM 37.6572 -97.7628 288° West 278 320 14,000 2,390 Climbing Kansas City Center
02:55PM 37.6808 -97.8594 287° West 288 331 16,200 2,164 Climbing Kansas City Center
02:56PM 37.7064 -97.9661 287° West 307 353 18,400 1,839 Climbing Kansas City Center
02:57PM 37.7389 -98.0969 287° West 321 369 20,000 768 Climbing Kansas City Center
02:58PM 37.7653 -98.2103 286° West 376 433 20,000  Level Kansas City Center
02:59PM 37.7964 -98.3369 287° West 379 436 20,000  Level Kansas City Center
03:00PM 37.8283 -98.4606 288° West 370 426 20,000  Level Kansas City Center
03:01PM 37.8672 -98.6072 289° West 367 422 20,000  Level Kansas City Center
03:02PM 37.8986 -98.7219 289° West 353 406 20,000  Level Kansas City Center
03:03PM 37.9283 -98.8253 290° West 326 375 20,000  Level Kansas City Center
03:04PM 37.9586 -98.9292 290° West 315 362 20,000  Level Kansas City Center
03:05PM 37.9556 -99.0456 268° West 342 394 20,000  Level Kansas City Center
03:06PM 37.8769 -99.1172 216° Southwest 347 399 20,000 -144 Level Kansas City Center
03:07PM 37.7758 -99.1497 194° South 384 442 19,700 -1,033 Descending Kansas City Center
03:08PM 37.7278 -99.0114 114° Southeast 386 444 17,900 -1,548 Descending Kansas City Center
03:09PM 37.7211 -98.8761 94° East 388 447 16,500 -1,403 Descending Kansas City Center
03:10PM 37.7147 -98.7333 93° East 401 461 15,000 -1,403 Descending Kansas City Center
03:11PM 37.7083 -98.5900 93° East 408 470 13,600 -1,286 Descending Kansas City Center
03:12PM 37.7025 -98.4756 94° East 411 473 12,600 -1,200 Descending Kansas City Center
03:13PM 37.6964 -98.3364 93° East 405 466 11,400 -1,082 Descending Kansas City Center
03:14PM 37.6908 -98.2289 94° East 302 348 10,400 -1,190 Descending Kansas City Center
03:15PM 37.6878 -98.1261 92° East 272 313 9,100 -1,316 Descending Kansas City Center
03:16PM 37.6808 -98.0294 95° East 272 313 7,900 -1,286 Descending Kansas City Center
03:17PM 37.6761 -97.9111 93° East 277 319 6,400 -891 Descending Kansas City Center
03:18PM 37.6822 -97.8178 85° East 277 319 6,000 -347 Descending Kansas City Center
03:19PM 37.7114 -97.7264 68° East 269 310 5,700 -783 Descending Kansas City Center
03:20PM 37.7353 -97.6458 69° East 265 305 4,500 -879 Descending Kansas City Center
03:21PM 37.7519 -97.5586 76° East 252 290 4,000 -246 Descending Kansas City Center
03:22PM 37.7753 -97.4731 71° East 260 299 4,000  Level Kansas City Center
03:23PM 37.7850 -97.4397 70° East 257 296 4,000  Level Kansas City Center
03:23PM 37.7950 -97.3958 74° East 221 254 4,000 -590 Level Kansas City Center
03:24PM 37.7822 -97.3739 126° Southeast 238 274 3,400 -885 Descending Kansas City Center
03:24PM 37.7511 -97.3764 184° South 184 212 3,100 -590 Descending Kansas City Center
03:25PM 37.7336 -97.3847 201° Southwest 204 235 2,800 -787 Descending Kansas City Center
03:25PM 37.7089 -97.3961 200° South 153 176 2,300 -656 Descending Kansas City Center
03:26PM 37.6958 -97.4014 198° South 171 197 2,100 -511 Descending Kansas City Center
03:27PM 37.6583 -97.4183 200° South 152 175 1,500 -590 Descending Kansas City Center

Login

Don't have an account? Register now (free) for customized features, flight alerts, and more!